Time;durP1;ratioP1;P1;durP2;ratioP2;P2;SDS_P1;SDS_P2;PMS_P1;PMS_P2;Temp;Humidity;BMP_temperature;BMP_pressure;BME280_temperature;BME280_humidity;BME280_pressure;Samples;Min_cycle;Max_cycle;Signal;HPM_P1;HPM_P2
2022/03/17 00:00:54;;;;;;;4.70;4.25;;;6.50;99.90;;;;;;5054957;28;20053;-59
2022/03/17 00:03:21;;;;;;;4.88;4.38;;;6.50;99.90;;;;;;5048644;28;20052;-59
2022/03/17 00:05:48;;;;;;;5.75;4.65;;;6.50;99.90;;;;;;5042111;28;20388;-59
2022/03/17 00:08:16;;;;;;;5.63;5.10;;;6.50;99.90;;;;;;5050138;28;20088;-59
2022/03/17 00:10:43;;;;;;;5.93;4.93;;;6.40;99.90;;;;;;5062340;28;20502;-59
2022/03/17 00:13:11;;;;;;;6.15;5.50;;;6.40;99.90;;;;;;5062147;28;20091;-59
2022/03/17 00:15:40;;;;;;;6.53;5.85;;;6.40;99.90;;;;;;5062397;28;20084;-58
2022/03/17 00:18:07;;;;;;;6.10;5.40;;;6.40;99.90;;;;;;5062006;28;20051;-59
2022/03/17 00:20:34;;;;;;;6.93;5.20;;;6.30;99.90;;;;;;5061410;28;20048;-59
2022/03/17 00:23:01;;;;;;;6.10;5.40;;;6.30;99.90;;;;;;5057168;28;20041;-59
2022/03/17 00:25:29;;;;;;;5.93;5.32;;;6.30;99.90;;;;;;5061509;28;20098;-59
2022/03/17 00:27:57;;;;;;;5.40;4.90;;;6.20;99.90;;;;;;5055456;28;20055;-59
2022/03/17 00:30:24;;;;;;;5.63;5.13;;;6.20;99.90;;;;;;5061180;28;20052;-59
2022/03/17 00:32:51;;;;;;;6.18;4.90;;;6.20;99.90;;;;;;5051292;28;20060;-58
2022/03/17 00:35:38;;;;;;;5.43;4.90;;;6.20;99.90;;;;;;5049694;28;20110;-59
2022/03/17 00:38:07;;;;;;;6.82;4.90;;;6.20;99.90;;;;;;5062801;28;20040;-58
2022/03/17 00:40:35;;;;;;;5.07;4.53;;;6.10;99.90;;;;;;5060539;28;20048;-57
2022/03/17 00:43:05;;;;;;;5.10;4.57;;;6.10;99.90;;;;;;5062822;28;20451;-60
2022/03/17 00:45:32;;;;;;;4.90;4.47;;;6.10;99.90;;;;;;5060528;28;20098;-60
2022/03/17 00:47:59;;;;;;;4.95;3.63;;;6.10;99.90;;;;;;5052239;28;20442;-58
2022/03/17 00:50:26;;;;;;;6.90;5.20;;;6.20;99.90;;;;;;5054017;28;20174;-58
2022/03/17 00:52:53;;;;;;;3.97;3.58;;;6.10;99.90;;;;;;5046105;28;20529;-60
2022/03/17 00:55:20;;;;;;;4.90;4.00;;;6.10;99.90;;;;;;5062249;28;20109;-60
2022/03/17 00:57:47;;;;;;;5.28;3.55;;;6.10;99.90;;;;;;5062375;28;20085;-59
2022/03/17 01:00:14;;;;;;;4.90;3.92;;;6.10;99.90;;;;;;5061805;28;20091;-58
2022/03/17 01:02:42;;;;;;;4.78;3.25;;;6.10;99.90;;;;;;5061292;28;20411;-58
2022/03/17 01:05:10;;;;;;;4.20;3.50;;;6.10;99.90;;;;;;5060369;28;20070;-58
2022/03/17 01:07:40;;;;;;;5.43;3.40;;;6.10;99.90;;;;;;5064328;28;20084;-58
2022/03/17 01:10:08;;;;;;;4.25;3.20;;;6.10;99.90;;;;;;5064797;28;20117;-58
2022/03/17 01:12:35;;;;;;;6.50;3.33;;;6.10;99.90;;;;;;5065652;28;20079;-58
2022/03/17 01:15:02;;;;;;;3.75;3.03;;;6.10;99.90;;;;;;5046792;28;20087;-58
2022/03/17 01:17:29;;;;;;;8.00;3.15;;;6.10;99.90;;;;;;5064851;28;20090;-58
2022/03/17 01:19:56;;;;;;;3.05;2.75;;;6.10;99.90;;;;;;5063939;28;20392;-60
2022/03/17 01:22:23;;;;;;;3.75;2.88;;;6.10;99.90;;;;;;5065426;28;20056;-60
2022/03/17 01:24:51;;;;;;;4.10;2.90;;;6.00;99.90;;;;;;5064870;28;20403;-60
2022/03/17 01:27:23;;;;;;;4.70;2.75;;;6.00;99.90;;;;;;5065085;28;20069;-59
2022/03/17 01:29:50;;;;;;;3.72;2.40;;;6.00;99.90;;;;;;5051498;28;20103;-60
2022/03/17 01:32:17;;;;;;;4.47;2.53;;;5.90;99.90;;;;;;5064650;28;20075;-60
2022/03/17 01:34:43;;;;;;;3.22;2.53;;;5.90;99.90;;;;;;5062424;28;20091;-60
2022/03/17 01:37:10;;;;;;;4.18;2.30;;;5.90;99.90;;;;;;5046880;28;20519;-60
2022/03/17 01:39:37;;;;;;;3.83;2.08;;;6.00;99.90;;;;;;5046478;28;20080;-60
2022/03/17 01:42:05;;;;;;;3.53;2.30;;;6.00;99.90;;;;;;5065030;28;20654;-60
2022/03/17 01:44:32;;;;;;;3.45;2.33;;;6.00;99.90;;;;;;5046103;28;20075;-60
2022/03/17 01:49:45;;;;;;;4.88;2.20;;;6.00;99.90;;;;;;5062735;28;20160;-60
2022/03/17 01:52:11;;;;;;;4.03;2.30;;;6.00;99.90;;;;;;5064981;28;20121;-58
2022/03/17 01:54:38;;;;;;;3.97;2.08;;;6.00;99.90;;;;;;5063853;28;20041;-58
2022/03/17 01:57:06;;;;;;;4.15;2.13;;;6.10;99.90;;;;;;5046881;28;20056;-58
2022/03/17 01:59:34;;;;;;;3.75;1.83;;;6.10;99.90;;;;;;5064049;28;20170;-58
2022/03/17 02:02:02;;;;;;;3.58;1.80;;;6.10;99.90;;;;;;5064384;28;20056;-58
2022/03/17 02:04:29;;;;;;;3.15;1.60;;;6.10;99.90;;;;;;5063076;28;20084;-58
2022/03/17 02:06:56;;;;;;;3.63;1.60;;;6.00;99.90;;;;;;5064626;28;20521;-58
2022/03/17 02:09:26;;;;;;;3.45;1.42;;;6.00;99.90;;;;;;5064145;28;20090;-58
2022/03/17 02:14:50;;;;;;;3.10;1.60;;;6.00;99.90;;;;;;5048194;28;20542;-58
2022/03/17 02:17:17;;;;;;;2.67;1.30;;;5.90;99.90;;;;;;5064551;28;20059;-59
2022/03/17 02:19:44;;;;;;;5.18;1.38;;;5.90;99.90;;;;;;5063091;28;20191;-58
2022/03/17 02:22:14;;;;;;;2.22;1.40;;;5.80;99.90;;;;;;5064433;28;20641;-57
2022/03/17 02:27:45;;;;;;;3.38;1.60;;;5.70;99.90;;;;;;5064653;28;20106;-57
2022/03/17 02:30:17;;;;;;;4.43;1.70;;;5.60;99.90;;;;;;5062782;28;20083;-57
2022/03/17 02:32:44;;;;;;;6.25;1.45;;;5.60;99.90;;;;;;5064421;28;20106;-57
2022/03/17 02:35:17;;;;;;;3.63;1.45;;;5.50;99.90;;;;;;5061272;28;20135;-58
2022/03/17 02:37:43;;;;;;;3.77;1.20;;;5.50;99.90;;;;;;5062158;28;20182;-58
2022/03/17 02:40:11;;;;;;;2.60;1.20;;;5.50;99.90;;;;;;5065055;28;20084;-58
2022/03/17 02:42:38;;;;;;;4.35;1.50;;;5.40;99.90;;;;;;5066449;28;20044;-58
2022/03/17 02:45:06;;;;;;;5.53;1.55;;;5.40;99.90;;;;;;5065585;28;20397;-58
2022/03/17 02:47:33;;;;;;;3.42;1.40;;;5.40;99.90;;;;;;5064899;28;20083;-58
2022/03/17 02:49:59;;;;;;;1.48;0.95;;;5.30;99.90;;;;;;5044855;28;20094;-58
2022/03/17 02:52:26;;;;;;;5.57;1.60;;;5.30;99.90;;;;;;5064348;28;20700;-58
2022/03/17 02:54:53;;;;;;;3.58;1.45;;;5.20;99.90;;;;;;5065511;28;20079;-58
2022/03/17 02:57:20;;;;;;;4.68;1.40;;;5.20;99.90;;;;;;5050323;28;20044;-58
2022/03/17 02:59:50;;;;;;;3.10;1.30;;;5.20;99.90;;;;;;5067187;28;20121;-58
2022/03/17 03:02:17;;;;;;;3.38;1.00;;;5.20;99.90;;;;;;5067551;28;20052;-58
2022/03/17 03:04:44;;;;;;;2.33;1.15;;;5.10;99.90;;;;;;5066328;28;20468;-58
2022/03/17 03:07:10;;;;;;;1.25;0.75;;;5.10;99.90;;;;;;5067942;28;20049;-58
2022/03/17 03:09:37;;;;;;;5.78;1.30;;;5.00;99.90;;;;;;5067040;28;20075;-59
2022/03/17 03:12:04;;;;;;;1.85;0.90;;;5.00;99.90;;;;;;5067606;28;20075;-58
2022/03/17 03:14:31;;;;;;;2.20;1.00;;;5.00;99.90;;;;;;5049316;28;20134;-58
2022/03/17 03:16:58;;;;;;;1.35;0.82;;;4.90;99.90;;;;;;5067335;28;20044;-59
2022/03/17 03:19:25;;;;;;;2.63;0.82;;;4.90;99.90;;;;;;5066945;28;20053;-58
2022/03/17 03:21:52;;;;;;;1.55;1.00;;;4.90;99.90;;;;;;5066777;28;20134;-59
2022/03/17 03:24:18;;;;;;;2.80;1.10;;;4.80;99.90;;;;;;5066992;28;20048;-58
2022/03/17 03:26:45;;;;;;;2.38;1.23;;;4.80;99.90;;;;;;5067421;28;20219;-58
2022/03/17 03:29:27;;;;;;;2.35;1.05;;;4.70;99.90;;;;;;5067382;28;20131;-58
2022/03/17 03:31:58;;;;;;;2.17;1.10;;;4.70;99.90;;;;;;5050756;28;20087;-59
2022/03/17 03:34:26;;;;;;;2.42;1.08;;;4.70;99.90;;;;;;5065768;28;20780;-58
2022/03/17 03:39:38;;;;;;;1.67;1.10;;;4.60;99.90;;;;;;5067160;28;20128;-58
2022/03/17 03:42:07;;;;;;;2.72;1.02;;;4.60;99.90;;;;;;5067664;28;20514;-59
2022/03/17 03:44:34;;;;;;;3.72;1.00;;;4.50;99.90;;;;;;5066763;28;20696;-58
2022/03/17 03:47:01;;;;;;;2.33;1.00;;;4.50;99.90;;;;;;5067543;28;20131;-58
2022/03/17 03:49:28;;;;;;;1.40;0.98;;;4.50;99.90;;;;;;5065917;28;20048;-59
2022/03/17 03:51:55;;;;;;;1.90;1.02;;;4.40;99.90;;;;;;5066742;28;20127;-58
2022/03/17 03:54:21;;;;;;;2.50;0.95;;;4.40;99.90;;;;;;5066791;28;20124;-58
2022/03/17 03:56:55;;;;;;;1.10;0.80;;;4.40;99.90;;;;;;5067504;28;20084;-59
2022/03/17 03:59:26;;;;;;;1.60;0.93;;;4.30;99.90;;;;;;5066374;28;20139;-59
2022/03/17 04:01:57;;;;;;;2.30;0.90;;;4.30;99.90;;;;;;5063397;28;20080;-59
2022/03/17 04:04:24;;;;;;;2.72;0.85;;;4.20;99.90;;;;;;5065646;28;20143;-59
2022/03/17 04:06:52;;;;;;;1.48;1.08;;;4.20;99.90;;;;;;5066444;28;20099;-57
2022/03/17 04:09:20;;;;;;;1.75;1.15;;;4.20;99.90;;;;;;5066492;28;20080;-59
2022/03/17 04:11:47;;;;;;;1.60;0.88;;;4.20;99.90;;;;;;5066593;28;20132;-59
2022/03/17 04:14:14;;;;;;;1.70;0.68;;;4.10;99.90;;;;;;5065526;28;20087;-59
2022/03/17 04:16:41;;;;;;;1.92;0.80;;;4.10;99.90;;;;;;5066069;28;20088;-59
2022/03/17 04:19:09;;;;;;;1.50;0.80;;;4.10;99.90;;;;;;5065643;28;20230;-59
2022/03/17 04:21:36;;;;;;;0.93;0.70;;;4.10;99.90;;;;;;5066375;28;20040;-58
2022/03/17 04:24:03;;;;;;;0.95;0.70;;;4.00;99.90;;;;;;5048696;28;20140;-58
2022/03/17 04:26:30;;;;;;;0.85;0.63;;;4.00;99.90;;;;;;5066534;28;20662;-59
2022/03/17 04:34:06;;;;;;;1.92;0.90;;;3.90;99.90;;;;;;5016712;28;20048;-61
2022/03/17 04:36:33;;;;;;;1.45;0.80;;;3.80;99.90;;;;;;5025214;28;20504;-62
2022/03/17 04:39:00;;;;;;;1.52;0.85;;;3.80;99.90;;;;;;5026435;28;20460;-61
2022/03/17 04:41:27;;;;;;;1.95;0.80;;;3.80;99.90;;;;;;5026913;28;20107;-61
2022/03/17 04:43:54;;;;;;;1.00;0.77;;;3.70;99.90;;;;;;5017652;28;20584;-61
2022/03/17 04:46:21;;;;;;;1.23;0.70;;;3.70;99.90;;;;;;5013888;28;20076;-61
2022/03/17 04:48:48;;;;;;;2.72;0.85;;;3.60;99.90;;;;;;5009036;28;20073;-60
2022/03/17 04:51:16;;;;;;;1.55;0.90;;;3.60;99.90;;;;;;5016192;28;20447;-61
2022/03/17 04:53:42;;;;;;;2.55;0.90;;;3.60;99.90;;;;;;5019676;28;20080;-61
2022/03/17 04:56:10;;;;;;;1.48;0.95;;;3.60;99.90;;;;;;5008153;28;20132;-62
2022/03/17 04:58:41;;;;;;;2.40;0.90;;;3.50;99.90;;;;;;5018979;28;20474;-61
2022/03/17 05:01:08;;;;;;;1.75;0.88;;;3.50;99.90;;;;;;5023427;28;20049;-61
2022/03/17 05:03:35;;;;;;;1.98;0.90;;;3.50;99.90;;;;;;5026494;28;20507;-61
2022/03/17 05:06:03;;;;;;;5.50;1.42;;;3.50;99.90;;;;;;5026925;28;20049;-61
2022/03/17 05:08:33;;;;;;;1.10;0.77;;;3.50;99.90;;;;;;5026226;28;20128;-61
2022/03/17 05:11:00;;;;;;;1.20;0.90;;;3.50;99.90;;;;;;5026576;28;20077;-62
2022/03/17 05:13:27;;;;;;;1.85;0.88;;;3.40;99.90;;;;;;5027122;28;20136;-61
2022/03/17 05:15:54;;;;;;;2.35;1.40;;;3.40;99.90;;;;;;5027366;28;20473;-61
2022/03/17 05:18:21;;;;;;;2.15;1.23;;;3.40;99.90;;;;;;5026110;28;20416;-61
2022/03/17 05:20:48;;;;;;;1.23;0.80;;;3.40;99.90;;;;;;5026676;28;20140;-61
2022/03/17 05:23:15;;;;;;;2.40;1.08;;;3.40;99.90;;;;;;5026949;28;20080;-61
2022/03/17 05:25:43;;;;;;;2.85;0.70;;;3.40;99.90;;;;;;5027324;28;20397;-61
2022/03/17 05:28:09;;;;;;;1.13;0.80;;;3.40;99.90;;;;;;5027753;28;20073;-61
2022/03/17 05:30:37;;;;;;;1.33;0.80;;;3.40;99.90;;;;;;5041924;28;20103;-61
2022/03/17 05:33:04;;;;;;;1.95;1.00;;;3.40;99.90;;;;;;5026492;28;20096;-61
2022/03/17 05:35:31;;;;;;;1.45;0.80;;;3.40;99.90;;;;;;5026234;28;20049;-61
2022/03/17 05:37:58;;;;;;;1.27;0.75;;;3.30;99.90;;;;;;5027117;28;20132;-61
2022/03/17 05:40:25;;;;;;;3.03;0.90;;;3.30;99.90;;;;;;5027202;28;20144;-62
2022/03/17 05:42:54;;;;;;;2.08;1.10;;;3.30;99.90;;;;;;5027282;28;20080;-61
2022/03/17 05:45:21;;;;;;;1.35;0.88;;;3.30;99.90;;;;;;5025188;28;20176;-62
2022/03/17 05:47:49;;;;;;;3.65;0.95;;;3.30;99.90;;;;;;5017543;28;20069;-61
2022/03/17 05:50:20;;;;;;;1.70;0.95;;;3.20;99.90;;;;;;5014439;28;20087;-61
2022/03/17 05:52:47;;;;;;;1.60;0.82;;;3.20;99.90;;;;;;5011839;28;20104;-60
2022/03/17 05:55:15;;;;;;;1.50;0.90;;;3.20;99.90;;;;;;5005379;28;20092;-61
2022/03/17 05:57:43;;;;;;;2.20;0.88;;;3.20;99.90;;;;;;5013878;28;20079;-62
2022/03/17 06:00:10;;;;;;;2.03;1.00;;;3.20;99.90;;;;;;5024686;28;20743;-61
2022/03/17 06:02:38;;;;;;;1.33;0.80;;;3.20;99.90;;;;;;5017516;28;20585;-61
2022/03/17 06:05:05;;;;;;;1.40;0.80;;;3.10;99.90;;;;;;5003088;28;20054;-61
2022/03/17 06:07:37;;;;;;;2.25;1.00;;;3.10;99.90;;;;;;5003745;28;20085;-61
2022/03/17 06:10:05;;;;;;;1.85;0.75;;;3.00;99.90;;;;;;5004822;28;20080;-61
2022/03/17 06:12:32;;;;;;;1.70;0.70;;;3.00;99.90;;;;;;5020415;28;20076;-62
2022/03/17 06:14:59;;;;;;;1.60;0.60;;;3.00;99.90;;;;;;5020462;28;20144;-61
2022/03/17 06:17:41;;;;;;;1.33;0.75;;;3.10;99.90;;;;;;5020742;28;20081;-62
2022/03/17 06:20:12;;;;;;;1.58;0.80;;;3.00;99.90;;;;;;5018786;28;20057;-61
2022/03/17 06:22:43;;;;;;;1.20;0.68;;;3.10;99.90;;;;;;5018702;28;20050;-61
2022/03/17 06:25:11;;;;;;;2.92;0.90;;;3.10;99.90;;;;;;5011955;28;20096;-61
2022/03/17 06:27:38;;;;;;;1.63;0.90;;;3.00;99.90;;;;;;5011724;28;20128;-62
2022/03/17 06:30:05;;;;;;;4.13;1.63;;;3.10;99.90;;;;;;5020939;28;20096;-61
2022/03/17 06:32:39;;;;;;;1.00;0.70;;;3.10;99.90;;;;;;5018815;28;20137;-61
2022/03/17 06:35:14;;;;;;;1.02;0.88;;;3.10;99.90;;;;;;5017698;28;20526;-61
2022/03/17 06:37:42;;;;;;;2.55;1.08;;;3.10;99.90;;;;;;5008270;28;20476;-61
2022/03/17 06:40:10;;;;;;;1.55;0.82;;;3.20;99.90;;;;;;5014890;28;20080;-61
2022/03/17 06:42:37;;;;;;;1.65;1.00;;;3.20;99.90;;;;;;5013746;28;20456;-61
2022/03/17 06:45:04;;;;;;;1.92;0.93;;;3.30;99.90;;;;;;5003249;28;20538;-61
2022/03/17 06:47:31;;;;;;;1.85;0.90;;;3.30;99.90;;;;;;5014124;28;20149;-61
2022/03/17 06:49:58;;;;;;;2.05;0.82;;;3.40;99.90;;;;;;5009400;28;20591;-61
2022/03/17 06:52:25;;;;;;;4.03;1.20;;;3.40;99.90;;;;;;5020394;28;20080;-63
2022/03/17 06:54:52;;;;;;;1.98;1.17;;;3.50;99.90;;;;;;5021709;28;20053;-65
2022/03/17 06:57:20;;;;;;;2.70;0.90;;;3.50;99.90;;;;;;5022460;28;20057;-66
2022/03/17 06:59:47;;;;;;;2.47;0.98;;;3.50;99.90;;;;;;5011823;28;20132;-63
2022/03/17 07:02:13;;;;;;;2.90;0.80;;;3.60;99.90;;;;;;5016956;28;20776;-62
2022/03/17 07:04:41;;;;;;;2.45;1.25;;;3.60;99.90;;;;;;5015029;28;20103;-62
2022/03/17 07:07:08;;;;;;;1.98;0.80;;;3.70;99.90;;;;;;5013872;28;20445;-62
2022/03/17 07:09:35;;;;;;;1.27;0.93;;;3.70;99.90;;;;;;5010443;28;20133;-64
2022/03/17 07:12:02;;;;;;;2.17;0.88;;;3.80;99.90;;;;;;5012091;28;20160;-63
2022/03/17 07:14:29;;;;;;;2.38;1.10;;;3.80;99.90;;;;;;5010566;28;20137;-63
2022/03/17 07:16:55;;;;;;;2.10;1.05;;;3.80;99.90;;;;;;5006562;28;20582;-64
2022/03/17 07:19:22;;;;;;;1.90;1.00;;;3.80;99.90;;;;;;5016139;28;20064;-63
2022/03/17 07:21:49;;;;;;;1.83;0.85;;;3.90;99.90;;;;;;5017931;28;20054;-63
2022/03/17 07:24:16;;;;;;;1.85;0.88;;;3.90;99.90;;;;;;5001597;28;20138;-63
2022/03/17 07:26:43;;;;;;;2.40;1.02;;;4.00;99.90;;;;;;5019754;28;20066;-63
2022/03/17 07:29:10;;;;;;;2.33;1.23;;;4.00;99.90;;;;;;5020170;28;20049;-63
2022/03/17 07:31:37;;;;;;;2.03;0.95;;;4.10;99.90;;;;;;5021067;28;20141;-63
2022/03/17 07:34:04;;;;;;;2.20;1.10;;;4.20;99.90;;;;;;5020314;28;20065;-64
2022/03/17 07:36:31;;;;;;;2.72;1.20;;;4.30;99.90;;;;;;5017395;28;20128;-64
2022/03/17 07:38:58;;;;;;;3.13;0.93;;;4.30;99.90;;;;;;5019082;28;20120;-64
2022/03/17 07:41:25;;;;;;;3.35;1.27;;;4.40;99.90;;;;;;5018457;28;20658;-63
2022/03/17 07:43:51;;;;;;;2.05;1.20;;;4.50;99.90;;;;;;5000482;28;20132;-61
2022/03/17 07:46:19;;;;;;;3.20;1.00;;;4.50;99.90;;;;;;5009581;28;20096;-61
2022/03/17 07:48:46;;;;;;;2.70;0.80;;;4.60;99.90;;;;;;5009914;28;20046;-61
2022/03/17 07:51:14;;;;;;;1.98;1.08;;;4.70;99.90;;;;;;5011334;28;20417;-60
2022/03/17 07:53:41;;;;;;;3.38;1.02;;;4.70;99.90;;;;;;5003045;28;20060;-61
2022/03/17 07:56:08;;;;;;;2.80;1.10;;;4.80;99.90;;;;;;5002193;28;20540;-61
2022/03/17 07:58:35;;;;;;;3.13;1.17;;;4.90;99.90;;;;;;5015161;28;20107;-61
2022/03/17 08:01:02;;;;;;;3.88;0.88;;;5.00;99.90;;;;;;5012319;28;20606;-61
2022/03/17 08:03:29;;;;;;;1.98;1.15;;;5.00;99.90;;;;;;5008473;28;20057;-60
2022/03/17 08:05:57;;;;;;;2.25;1.23;;;5.10;99.90;;;;;;5019237;28;20050;-61
2022/03/17 08:08:24;;;;;;;2.85;1.45;;;5.20;99.90;;;;;;5020782;28;20068;-60
2022/03/17 08:10:51;;;;;;;2.65;1.20;;;5.20;99.90;;;;;;5020039;28;20129;-61
2022/03/17 08:13:18;;;;;;;4.65;1.75;;;5.30;99.90;;;;;;5019484;28;20216;-61
2022/03/17 08:15:44;;;;;;;1.45;1.00;;;5.40;99.90;;;;;;5019885;28;20089;-61
2022/03/17 08:18:11;;;;;;;3.88;1.13;;;5.50;99.90;;;;;;5019341;28;20186;-60
2022/03/17 08:20:39;;;;;;;2.92;1.52;;;5.60;99.90;;;;;;5018931;28;20049;-61
2022/03/17 08:23:06;;;;;;;2.42;1.23;;;5.70;99.90;;;;;;5019714;28;20598;-61
2022/03/17 08:25:33;;;;;;;3.47;1.17;;;5.80;99.90;;;;;;5021486;28;20096;-61
2022/03/17 08:28:02;;;;;;;4.05;1.33;;;5.80;99.90;;;;;;5021482;28;20572;-61
2022/03/17 08:30:37;;;;;;;3.92;1.40;;;5.90;99.90;;;;;;5020491;28;20626;-61
2022/03/17 08:33:04;;;;;;;4.38;1.40;;;6.00;99.90;;;;;;5013546;28;20153;-61
2022/03/17 08:35:31;;;;;;;4.18;1.30;;;6.10;99.90;;;;;;5004776;28;20057;-60
2022/03/17 08:37:58;;;;;;;3.42;1.20;;;6.10;99.90;;;;;;5012423;28;20069;-61
2022/03/17 08:40:24;;;;;;;3.60;1.08;;;6.20;99.90;;;;;;5003539;28;20537;-60
2022/03/17 08:42:51;;;;;;;4.10;1.33;;;6.30;99.90;;;;;;5013125;28;20049;-61
2022/03/17 08:50:49;;;;;;;2.70;1.38;;;6.50;99.90;;;;;;5005233;28;20061;-60
2022/03/17 08:53:16;;;;;;;2.33;1.20;;;6.60;99.90;;;;;;5009048;28;20571;-60
2022/03/17 08:55:42;;;;;;;3.97;1.30;;;6.60;99.90;;;;;;5005039;28;20078;-60
2022/03/17 08:58:10;;;;;;;1.30;0.90;;;6.70;99.90;;;;;;5000984;28;20144;-61
2022/03/17 09:00:37;;;;;;;4.00;1.13;;;6.80;99.90;;;;;;5000222;28;20046;-61
2022/03/17 09:03:04;;;;;;;5.43;1.38;;;6.90;99.90;;;;;;4999864;28;20893;-61
2022/03/17 09:05:33;;;;;;;2.72;1.50;;;7.00;99.90;;;;;;5002414;28;20119;-60
2022/03/17 09:08:04;;;;;;;;;;;7.10;99.90;;;;;;5020770;28;20140;-61
2022/03/17 09:10:32;;;;;;;4.45;1.02;;;7.20;99.90;;;;;;5016269;28;20362;-61
2022/03/17 09:13:06;;;;;;;5.78;1.77;;;7.20;99.90;;;;;;5009225;28;20105;-61
2022/03/17 09:15:38;;;;;;;5.65;1.38;;;7.30;99.90;;;;;;5000684;28;20467;-61
2022/03/17 09:18:09;;;;;;;2.38;1.23;;;7.30;99.90;;;;;;5002873;28;20433;-61
2022/03/17 09:20:37;;;;;;;3.08;1.38;;;7.40;99.90;;;;;;5006229;28;20276;-61
2022/03/17 09:23:03;;;;;;;2.38;1.10;;;7.50;99.90;;;;;;5009865;28;20141;-60
2022/03/17 09:25:30;;;;;;;3.22;1.38;;;7.60;99.90;;;;;;5011057;28;20056;-61
2022/03/17 09:27:57;;;;;;;6.38;1.75;;;7.60;99.90;;;;;;5011240;28;20136;-61
2022/03/17 09:30:24;;;;;;;2.15;1.08;;;7.70;99.90;;;;;;5012554;28;20149;-61
2022/03/17 09:32:52;;;;;;;4.43;1.35;;;7.80;99.90;;;;;;5015771;28;20103;-61
2022/03/17 09:35:19;;;;;;;4.60;1.77;;;7.90;99.90;;;;;;5007810;28;20492;-60
2022/03/17 09:37:45;;;;;;;2.65;1.60;;;8.00;99.90;;;;;;5004333;28;20396;-61
2022/03/17 09:40:12;;;;;;;2.88;1.50;;;8.10;99.90;;;;;;5014698;28;20103;-60
2022/03/17 09:42:39;;;;;;;2.13;1.02;;;8.20;99.90;;;;;;5009480;28;20141;-60
2022/03/17 09:45:07;;;;;;;2.67;1.20;;;8.30;99.90;;;;;;5011857;28;20224;-61
2022/03/17 09:47:36;;;;;;;4.13;1.48;;;8.40;99.90;;;;;;5010611;28;20112;-61
2022/03/17 09:50:03;;;;;;;3.85;1.38;;;8.50;99.90;;;;;;5001764;28;20140;-61
2022/03/17 09:52:32;;;;;;;3.85;1.10;;;8.60;99.90;;;;;;5037498;28;20504;-61
2022/03/17 09:54:58;;;;;;;3.42;1.48;;;8.70;99.90;;;;;;5016056;28;20506;-61
2022/03/17 09:57:26;;;;;;;3.63;1.25;;;8.70;99.90;;;;;;5005247;28;20084;-61
2022/03/17 09:59:58;;;;;;;4.13;1.45;;;8.80;99.90;;;;;;5015350;28;20568;-61
2022/03/17 10:02:25;;;;;;;4.47;1.10;;;8.90;99.90;;;;;;5015965;28;20710;-61
2022/03/17 10:04:52;;;;;;;3.00;0.95;;;9.00;99.90;;;;;;5003299;28;20050;-61
2022/03/17 10:07:22;;;;;;;2.22;1.20;;;9.10;99.90;;;;;;5006070;28;20141;-61
2022/03/17 10:09:49;;;;;;;1.88;1.00;;;9.20;99.90;;;;;;5014800;28;20089;-61
2022/03/17 10:12:20;;;;;;;1.65;0.80;;;9.40;99.90;;;;;;5014027;28;20100;-61
2022/03/17 10:14:51;;;;;;;3.63;1.10;;;9.40;99.90;;;;;;5017271;28;20045;-61
2022/03/17 10:17:38;;;;;;;4.47;1.27;;;9.60;99.90;;;;;;5021378;28;20053;-61
2022/03/17 10:20:19;;;;;;;4.68;1.40;;;9.60;99.90;;;;;;5003080;28;20058;-61
2022/03/17 10:22:50;;;;;;;2.63;1.10;;;9.60;99.90;;;;;;5003331;28;20064;-61
2022/03/17 10:25:18;;;;;;;3.75;1.38;;;9.70;99.90;;;;;;5003779;28;20124;-60
2022/03/17 10:27:45;;;;;;;2.13;1.10;;;9.90;99.90;;;;;;5015157;28;20077;-60
2022/03/17 10:30:27;;;;;;;2.17;1.08;;;10.00;99.90;;;;;;5009126;28;20396;-59
2022/03/17 10:32:58;;;;;;;2.75;1.10;;;10.00;99.90;;;;;;5013679;28;20704;-60
2022/03/17 10:35:33;;;;;;;3.33;1.25;;;10.00;99.90;;;;;;5019307;28;20343;-60
2022/03/17 10:38:12;;;;;;;3.22;1.27;;;10.10;99.90;;;;;;5018156;28;20127;-61
2022/03/17 10:40:39;;;;;;;3.92;1.52;;;10.00;99.90;;;;;;5003531;28;20108;-60
2022/03/17 10:43:19;;;;;;;6.25;2.30;;;10.10;99.90;;;;;;5007062;28;20145;-60
2022/03/17 10:45:46;;;;;;;4.32;1.40;;;10.20;99.90;;;;;;5021712;28;20085;-60
2022/03/17 10:48:13;;;;;;;4.60;1.20;;;10.20;99.90;;;;;;5005154;28;20060;-60
2022/03/17 10:50:42;;;;;;;4.05;1.60;;;10.30;99.90;;;;;;5018287;28;20584;-60
2022/03/17 10:53:09;;;;;;;2.78;1.35;;;10.40;99.90;;;;;;5012659;28;20480;-61
2022/03/17 10:55:37;;;;;;;2.78;1.40;;;10.50;99.90;;;;;;5006165;28;20084;-61
2022/03/17 10:58:17;;;;;;;2.83;1.20;;;10.50;99.90;;;;;;5012994;28;20161;-60
2022/03/17 11:00:44;;;;;;;2.13;0.98;;;10.50;99.90;;;;;;5009198;28;20164;-60
2022/03/17 11:03:11;;;;;;;3.58;1.58;;;10.60;99.90;;;;;;5022619;28;20077;-60
2022/03/17 11:05:38;;;;;;;2.20;0.98;;;10.70;99.90;;;;;;4997451;28;20108;-60
2022/03/17 11:08:10;;;;;;;2.95;1.13;;;10.70;99.90;;;;;;5009771;28;20328;-60
2022/03/17 11:10:40;;;;;;;4.68;1.42;;;10.80;99.90;;;;;;5015580;28;20599;-60
2022/03/17 11:13:11;;;;;;;3.10;1.88;;;10.90;99.90;;;;;;5018971;28;20595;-60
2022/03/17 11:15:40;;;;;;;2.70;1.48;;;10.90;99.90;;;;;;5015205;28;20064;-60
2022/03/17 11:18:18;;;;;;;3.65;1.10;;;10.90;99.90;;;;;;5013365;28;20073;-60
2022/03/17 11:20:45;;;;;;;1.67;0.82;;;11.10;99.90;;;;;;5000973;28;20053;-60
2022/03/17 11:23:19;;;;;;;3.45;1.52;;;11.20;99.90;;;;;;5015399;28;20666;-61
2022/03/17 11:25:53;;;;;;;2.03;1.20;;;11.30;99.90;;;;;;5003153;28;20042;-60
2022/03/17 11:28:33;;;;;;;4.38;1.63;;;11.40;99.90;;;;;;5003455;28;20168;-60
2022/03/17 11:31:01;;;;;;;2.83;0.75;;;11.40;99.90;;;;;;5017289;28;20076;-61
2022/03/17 11:33:31;;;;;;;1.60;0.80;;;11.60;99.90;;;;;;5019938;28;20073;-61
2022/03/17 11:36:10;;;;;;;4.03;1.13;;;11.80;99.90;;;;;;4990868;28;20143;-60
2022/03/17 11:38:38;;;;;;;3.80;1.20;;;12.00;99.90;;;;;;5002339;28;20091;-60
2022/03/17 11:41:20;;;;;;;3.85;1.10;;;12.10;99.90;;;;;;5002061;28;20049;-61
2022/03/17 11:43:47;;;;;;;1.83;0.95;;;12.20;99.90;;;;;;5001044;28;20101;-60
2022/03/17 11:46:21;;;;;;;1.58;0.80;;;12.30;99.90;;;;;;5001957;28;20578;-60
2022/03/17 11:48:54;;;;;;;2.00;0.98;;;12.50;99.90;;;;;;5011427;28;20144;-60
2022/03/17 11:51:21;;;;;;;2.38;1.02;;;12.60;99.90;;;;;;5002097;28;20134;-60
2022/03/17 11:54:08;;;;;;;4.63;1.27;;;12.60;99.90;;;;;;5001538;28;20985;-60
2022/03/17 11:56:43;;;;;;;3.00;1.42;;;12.80;99.90;;;;;;5021215;28;20085;-61
2022/03/17 11:59:13;;;;;;;2.90;1.02;;;13.00;99.90;;;;;;5019372;28;20129;-61
2022/03/17 12:01:40;;;;;;;2.42;1.05;;;13.20;99.90;;;;;;5015147;28;20141;-61
2022/03/17 12:04:08;;;;;;;3.22;1.27;;;13.40;99.90;;;;;;5002502;28;20081;-61
2022/03/17 12:06:36;;;;;;;3.42;1.55;;;13.40;99.90;;;;;;5001819;28;20064;-61
2022/03/17 12:09:08;;;;;;;3.22;1.48;;;13.50;99.90;;;;;;5000528;28;20089;-60
2022/03/17 12:11:39;;;;;;;2.80;1.50;;;13.60;99.90;;;;;;5002093;28;20099;-61
2022/03/17 12:14:18;;;;;;;3.70;1.60;;;13.70;99.90;;;;;;5002273;28;20144;-60
2022/03/17 12:16:52;;;;;;;4.47;1.70;;;13.70;99.90;;;;;;5009568;28;20407;-61
2022/03/17 12:19:43;;;;;;;2.58;1.33;;;13.90;99.90;;;;;;5006549;28;20049;-61
2022/03/17 12:22:14;;;;;;;2.70;1.15;;;14.10;99.90;;;;;;5015561;28;20089;-61
2022/03/17 12:24:49;;;;;;;4.10;1.50;;;14.40;99.10;;;;;;5001640;28;20050;-61
2022/03/17 12:27:29;;;;;;;4.25;1.48;;;14.40;99.30;;;;;;5001471;28;20091;-61
2022/03/17 12:29:58;;;;;;;3.38;1.38;;;14.40;98.60;;;;;;5001273;28;20101;-61
2022/03/17 12:32:26;;;;;;;3.65;1.25;;;14.50;99.00;;;;;;5000680;28;20152;-61
2022/03/17 12:34:53;;;;;;;4.22;1.70;;;14.70;98.40;;;;;;5006339;28;20152;-61
2022/03/17 12:37:31;;;;;;;2.13;1.13;;;14.90;98.50;;;;;;5006381;28;20076;-61
2022/03/17 12:40:00;;;;;;;5.35;1.52;;;15.20;97.70;;;;;;5002413;28;20110;-61
2022/03/17 12:42:37;;;;;;;3.72;1.30;;;15.50;97.40;;;;;;5020337;28;20211;-62
2022/03/17 12:45:13;;;;;;;1.15;0.75;;;15.70;97.40;;;;;;5005240;28;20124;-61
2022/03/17 12:47:47;;;;;;;2.05;1.00;;;16.10;96.20;;;;;;5001846;28;20485;-61
2022/03/17 12:50:15;;;;;;;3.08;1.23;;;16.20;95.70;;;;;;5015703;28;20129;-61
2022/03/17 12:52:48;;;;;;;4.57;1.05;;;16.10;95.10;;;;;;5008180;28;20111;-61
2022/03/17 12:55:16;;;;;;;2.72;1.25;;;16.10;94.00;;;;;;5020596;28;20401;-61
2022/03/17 12:57:43;;;;;;;2.97;1.00;;;16.20;93.30;;;;;;5007834;28;20444;-61
2022/03/17 13:00:12;;;;;;;2.03;1.15;;;16.20;93.10;;;;;;4991939;28;20089;-61
2022/03/17 13:02:50;;;;;;;3.28;1.15;;;16.20;92.70;;;;;;5019645;28;20467;-61
2022/03/17 13:08:04;;;;;;;3.42;1.45;;;16.50;91.50;;;;;;5020811;28;20080;-61
2022/03/17 13:16:11;;;;;;;3.10;1.20;;;16.90;90.00;;;;;;4983464;28;20148;-61
2022/03/17 13:18:46;;;;;;;1.80;1.02;;;16.70;89.50;;;;;;4999261;28;20160;-61
2022/03/17 13:21:13;;;;;;;2.25;0.98;;;16.80;89.70;;;;;;5000124;28;20089;-61
2022/03/17 13:23:40;;;;;;;1.75;0.80;;;16.90;89.10;;;;;;5000394;28;20066;-61
2022/03/17 13:26:22;;;;;;;1.60;0.68;;;16.60;86.50;;;;;;4984180;28;20056;-61
2022/03/17 13:29:01;;;;;;;1.27;0.73;;;16.30;86.50;;;;;;5000873;28;20267;-60
2022/03/17 13:31:41;;;;;;;2.60;1.00;;;15.60;90.10;;;;;;4999220;28;20045;-60
2022/03/17 13:34:08;;;;;;;2.03;1.00;;;15.30;89.50;;;;;;4998232;28;20458;-61